Time;durP1;ratioP1;P1;durP2;ratioP2;P2;SDS_P1;SDS_P2;PMS_P1;PMS_P2;Temp;Humidity;BMP_temperature;BMP_pressure;BME280_temperature;BME280_humidity;BME280_pressure;Samples;Min_cycle;Max_cycle;Signal;HPM_P1;HPM_P2
2021/08/10 00:00:05;;;;;;;9.23;4.80;;;;;;;21.18;64.62;93471.47;5110556;28;20070;-84
2021/08/10 00:02:32;;;;;;;6.70;5.35;;;;;;;21.26;64.36;93467.50;5110985;28;20631;-84
2021/08/10 00:04:59;;;;;;;7.90;5.63;;;;;;;21.15;66.00;93466.78;5110722;28;20062;-84
2021/08/10 00:07:26;;;;;;;8.88;4.82;;;;;;;20.81;65.35;93431.66;5110690;28;20047;-84
2021/08/10 00:09:54;;;;;;;8.88;6.10;;;;;;;21.03;65.73;93457.44;5110614;28;20069;-84
2021/08/10 00:12:21;;;;;;;6.55;4.65;;;;;;;20.53;65.81;93385.06;5110964;28;20058;-85
2021/08/10 00:14:48;;;;;;;8.68;4.80;;;;;;;21.02;65.37;93455.09;5110439;28;20640;-84
2021/08/10 00:17:15;;;;;;;9.07;5.50;;;;;;;20.98;66.69;93462.69;5110167;28;20055;-84
2021/08/10 00:19:42;;;;;;;9.30;5.00;;;;;;;20.97;66.30;93453.31;5109585;28;20051;-84
2021/08/10 00:22:09;;;;;;;7.13;5.28;;;;;;;20.52;66.13;93387.94;5110174;28;20094;-88
2021/08/10 00:24:36;;;;;;;7.50;4.30;;;;;;;20.91;66.45;93451.75;5110777;28;20051;-84
2021/08/10 00:27:04;;;;;;;8.65;5.13;;;;;;;20.63;66.28;93414.75;5110620;27;20047;-85
2021/08/10 00:29:31;;;;;;;9.77;5.75;;;;;;;20.70;65.88;93426.47;5110184;28;20492;-84
2021/08/10 00:31:58;;;;;;;11.45;5.22;;;;;;;20.94;65.32;93457.22;5110088;28;20048;-84
2021/08/10 00:34:25;;;;;;;8.43;5.22;;;;;;;20.83;66.38;93445.25;5110056;28;20058;-83
2021/08/10 00:36:52;;;;;;;8.20;5.68;;;;;;;20.79;66.29;93438.97;5110328;28;20699;-83
2021/08/10 00:39:18;;;;;;;8.05;5.13;;;;;;;20.76;66.44;93437.69;5110185;28;20056;-83
2021/08/10 00:41:45;;;;;;;6.55;4.65;;;;;;;20.65;67.43;93438.78;5110027;28;20048;-83
2021/08/10 00:44:13;;;;;;;6.65;4.85;;;;;;;20.64;67.29;93434.63;5109587;28;20383;-83
2021/08/10 00:46:40;;;;;;;9.43;5.45;;;;;;;20.74;66.70;93447.59;5109897;28;20051;-84
2021/08/10 00:49:07;;;;;;;5.78;4.65;;;;;;;20.66;66.74;93441.13;5109720;28;20110;-84
2021/08/10 00:51:34;;;;;;;8.35;5.47;;;;;;;20.68;67.14;93446.06;5109979;28;20047;-84
2021/08/10 00:54:03;;;;;;;9.27;5.20;;;;;;;20.72;66.72;93454.13;5109748;28;20062;-84
2021/08/10 00:56:30;;;;;;;9.88;5.40;;;;;;;20.46;67.46;93421.06;5109750;27;20062;-84
2021/08/10 00:58:57;;;;;;;7.75;4.97;;;;;;;20.64;66.96;93458.88;5109684;28;20047;-84
2021/08/10 01:01:25;;;;;;;11.13;5.13;;;;;;;20.64;67.40;93458.88;5109684;28;19951;-84
2021/08/10 01:03:52;;;;;;;6.97;4.68;;;;;;;20.66;67.12;93456.78;5109810;28;20468;-84
2021/08/10 01:06:28;;;;;;;8.43;5.13;;;;;;;20.48;66.97;93436.47;5109745;28;20062;-84
2021/08/10 01:08:58;;;;;;;;;;;;;;;20.60;66.97;93467.50;5110123;28;20051;-84
2021/08/10 01:11:32;;;;;;;8.60;5.53;;;;;;;20.26;68.87;93440.19;5109835;28;19923;-84
2021/08/10 01:14:05;;;;;;;9.05;5.38;;;;;;;20.36;68.63;93468.84;5109723;28;20048;-84
2021/08/10 01:16:41;;;;;;;10.50;5.55;;;;;;;20.37;68.55;93467.03;5110085;28;20070;-84
2021/08/10 01:19:28;;;;;;;11.15;5.95;;;;;;;20.36;68.71;93468.09;5109778;28;20096;-83
2021/08/10 01:21:59;;;;;;;8.02;5.75;;;;;;;20.33;67.97;93458.19;5109683;28;20412;-87
2021/08/10 01:24:30;;;;;;;7.63;5.72;;;;;;;20.40;68.39;93461.28;5109461;28;20047;-87
2021/08/10 01:27:10;;;;;;;9.70;6.40;;;;;;;20.43;67.42;93466.75;5109477;28;20056;-87
2021/08/10 01:29:46;;;;;;;7.72;4.90;;;;;;;20.09;67.30;93404.75;5109469;28;20050;-88
2021/08/10 01:32:14;;;;;;;;;;;;;;;20.45;67.40;93456.06;5112429;28;20567;-88
2021/08/10 01:34:43;;;;;;;8.27;5.20;;;;;;;20.07;67.68;93417.28;5113554;28;19920;-88
2021/08/10 01:37:14;;;;;;;7.57;5.30;;;;;;;20.36;67.66;93455.81;5113555;28;20054;-88
2021/08/10 01:39:43;;;;;;;12.32;5.90;;;;;;;20.33;67.47;93456.34;5113249;28;20057;-87
2021/08/10 01:42:12;;;;;;;7.50;5.57;;;;;;;20.31;68.06;93461.03;5113356;28;20043;-87
2021/08/10 01:44:40;;;;;;;9.35;5.25;;;;;;;20.19;67.88;93447.50;5113492;28;21158;-87
2021/08/10 01:47:08;;;;;;;9.15;5.00;;;;;;;19.94;68.52;93413.34;5112844;28;20051;-88
2021/08/10 01:49:37;;;;;;;11.75;5.72;;;;;;;20.16;68.23;93456.63;5113236;28;20059;-87
2021/08/10 01:52:06;;;;;;;11.90;5.90;;;;;;;19.92;68.30;93414.66;5113472;28;20055;-83
2021/08/10 01:54:33;;;;;;;8.88;5.28;;;;;;;20.13;68.30;93452.72;5113373;28;20055;-84
2021/08/10 01:57:01;;;;;;;6.72;4.68;;;;;;;20.09;68.18;93451.69;5113509;28;20055;-82
2021/08/10 01:59:29;;;;;;;7.72;5.10;;;;;;;20.08;69.08;93444.16;5113372;28;20058;-83
2021/08/10 02:01:56;;;;;;;7.40;5.25;;;;;;;19.81;69.02;93419.88;5113079;28;20054;-85
2021/08/10 02:04:25;;;;;;;8.07;4.90;;;;;;;20.00;69.18;93453.28;5113384;28;20054;-84
2021/08/10 02:06:54;;;;;;;7.90;4.75;;;;;;;19.75;69.60;93433.97;5113093;28;20044;-84
2021/08/10 02:09:22;;;;;;;8.35;5.47;;;;;;;19.90;69.09;93449.59;5112845;28;20051;-84
2021/08/10 02:11:50;;;;;;;11.13;5.38;;;;;;;19.82;69.37;93444.94;5112801;28;20052;-84
2021/08/10 02:14:22;;;;;;;15.88;5.53;;;;;;;19.89;69.12;93461.06;5112915;28;20047;-84
2021/08/10 02:16:50;;;;;;;7.20;5.20;;;;;;;19.74;69.63;93451.44;5112957;28;20043;-82
2021/08/10 02:19:17;;;;;;;10.90;5.10;;;;;;;19.70;70.50;93450.38;5112799;28;21003;-82
2021/08/10 02:21:47;;;;;;;8.07;5.53;;;;;;;19.56;71.49;93444.13;5112872;28;20051;-82
2021/08/10 02:24:23;;;;;;;12.07;5.68;;;;;;;19.38;71.08;93424.59;5112859;28;20044;-81
2021/08/10 02:26:52;;;;;;;;;;;;;;;19.58;71.54;93462.91;5113092;28;20047;-82
2021/08/10 02:29:20;;;;;;;9.15;5.55;;;;;;;19.51;71.59;93460.53;5112777;27;19943;-82
2021/08/10 02:31:50;;;;;;;7.70;5.47;;;;;;;19.44;71.71;93454.81;5112387;28;20066;-82
2021/08/10 02:34:17;;;;;;;7.50;5.45;;;;;;;19.40;72.60;93457.16;5112242;28;20496;-82
2021/08/10 02:36:44;;;;;;;11.90;5.40;;;;;;;19.39;72.17;93460.78;5112270;28;20089;-87
2021/08/10 02:39:12;;;;;;;9.32;5.40;;;;;;;19.27;71.55;93428.97;5112213;27;20047;-87
2021/08/10 02:41:42;;;;;;;10.27;6.13;;;;;;;19.46;71.75;93465.75;5112518;28;20058;-86
2021/08/10 02:44:11;;;;;;;10.10;5.47;;;;;;;19.37;72.04;93455.06;5111576;28;20120;-86
2021/08/10 02:46:38;;;;;;;9.35;6.05;;;;;;;19.38;71.32;93454.00;5112218;28;20151;-86
2021/08/10 02:49:08;;;;;;;7.97;5.38;;;;;;;19.47;71.48;93462.88;5112330;28;20044;-86
2021/08/10 02:51:35;;;;;;;8.18;5.97;;;;;;;19.50;71.27;93462.34;5111764;28;20063;-86
2021/08/10 02:54:03;;;;;;;7.30;5.38;;;;;;;19.50;71.25;93466.78;5111897;28;20048;-86
2021/08/10 02:56:34;;;;;;;9.75;5.90;;;;;;;19.34;71.13;93448.53;5112128;28;20453;-86
2021/08/10 02:59:07;;;;;;;7.60;5.53;;;;;;;19.41;71.38;93458.72;5112083;28;20048;-86
2021/08/10 03:01:39;;;;;;;9.00;5.45;;;;;;;19.01;71.24;93402.88;5112004;28;20063;-86
2021/08/10 03:04:07;;;;;;;10.70;5.80;;;;;;;19.47;71.17;93470.69;5111875;28;20039;-87
2021/08/10 03:06:35;;;;;;;11.00;6.03;;;;;;;19.48;70.66;93461.03;5111645;28;20083;-84
2021/08/10 03:09:02;;;;;;;13.95;6.07;;;;;;;19.33;70.99;93460.00;5111885;28;20046;-85
2021/08/10 03:11:33;;;;;;;9.90;5.70;;;;;;;19.35;71.15;93464.97;5106164;28;20048;-85
2021/08/10 03:14:02;;;;;;;10.98;5.63;;;;;;;19.29;71.66;93468.56;5091200;28;20553;-85
2021/08/10 03:16:31;;;;;;;10.07;5.80;;;;;;;19.27;71.83;93481.06;5091183;28;20704;-84
2021/08/10 03:19:01;;;;;;;10.10;5.82;;;;;;;19.20;72.12;93469.09;5111157;28;20043;-84
2021/08/10 03:21:30;;;;;;;10.57;6.00;;;;;;;19.27;72.40;93478.47;5111350;28;20488;-84
2021/08/10 03:23:58;;;;;;;9.15;5.78;;;;;;;19.11;73.86;93457.59;5111236;27;20049;-85
2021/08/10 03:26:26;;;;;;;12.02;6.18;;;;;;;19.16;73.63;93475.06;5111624;28;20097;-84
2021/08/10 03:28:55;;;;;;;13.07;6.18;;;;;;;19.04;73.97;93465.66;5111516;28;20417;-84
2021/08/10 03:31:24;;;;;;;11.48;5.80;;;;;;;19.06;73.68;93465.38;5111469;28;20101;-84
2021/08/10 03:33:52;;;;;;;15.57;5.75;;;;;;;18.88;74.10;93451.00;5111328;27;20055;-84
2021/08/10 03:36:19;;;;;;;13.18;5.88;;;;;;;18.86;74.24;93450.47;5111484;28;20039;-84
2021/08/10 03:38:47;;;;;;;9.35;6.38;;;;;;;18.99;75.75;93472.63;5111402;28;20048;-84
2021/08/10 03:41:14;;;;;;;10.65;6.55;;;;;;;18.60;80.01;93494.59;5111280;28;20059;-84
2021/08/10 03:43:42;;;;;;;13.73;7.28;;;;;;;18.55;79.10;93472.72;5111045;28;20063;-84
2021/08/10 03:46:09;;;;;;;10.57;6.30;;;;;;;18.71;77.99;93488.41;5110966;28;20056;-84
2021/08/10 03:48:45;;;;;;;8.98;6.38;;;;;;;18.75;78.18;93481.66;5110778;28;20589;-85
2021/08/10 03:51:13;;;;;;;13.23;6.95;;;;;;;18.81;77.59;93485.88;5111155;28;20047;-84
2021/08/10 03:53:41;;;;;;;13.20;6.15;;;;;;;18.87;76.03;93470.25;5110809;28;20054;-84
2021/08/10 03:56:09;;;;;;;14.40;7.10;;;;;;;18.98;76.41;93489.28;5110850;28;20040;-84
2021/08/10 03:58:38;;;;;;;13.70;7.38;;;;;;;18.95;75.72;93474.97;5110816;27;20089;-84
2021/08/10 04:01:07;;;;;;;13.90;6.38;;;;;;;19.01;75.72;93473.94;5111024;28;20420;-84
2021/08/10 04:03:38;;;;;;;13.40;6.95;;;;;;;19.16;74.56;93488.84;5110556;28;20499;-84
2021/08/10 04:06:07;;;;;;;19.20;7.15;;;;;;;19.24;74.25;93490.19;5110449;28;20496;-84
2021/08/10 04:08:36;;;;;;;23.15;7.15;;;;;;;19.27;73.73;93489.69;5110786;28;20126;-84
2021/08/10 04:11:03;;;;;;;25.45;7.22;;;;;;;19.34;73.93;93481.59;5104973;28;20060;-84
2021/08/10 04:13:31;;;;;;;12.45;6.68;;;;;;;19.26;73.25;93466.50;5089490;28;20051;-84
2021/08/10 04:16:01;;;;;;;14.75;7.18;;;;;;;19.17;73.14;93448.75;5090381;28;20139;-84
2021/08/10 04:18:30;;;;;;;11.85;7.88;;;;;;;19.47;73.25;93491.53;5107401;28;20077;-84
2021/08/10 04:20:58;;;;;;;12.60;6.45;;;;;;;19.50;72.51;93475.38;5110143;28;20055;-84
2021/08/10 04:23:25;;;;;;;16.75;6.85;;;;;;;19.58;73.14;93481.13;5110034;28;20040;-82
2021/08/10 04:25:52;;;;;;;12.23;7.50;;;;;;;19.54;72.16;93483.47;5110048;28;20035;-83
2021/08/10 04:28:19;;;;;;;10.52;6.32;;;;;;;19.61;71.60;93497.03;5109930;28;20043;-83
2021/08/10 04:30:47;;;;;;;12.57;6.30;;;;;;;19.50;71.60;93472.78;5105531;27;20068;-85
2021/08/10 04:33:14;;;;;;;12.88;6.18;;;;;;;19.69;71.84;93500.94;5107013;28;20146;-85
2021/08/10 04:35:41;;;;;;;10.13;6.15;;;;;;;19.46;73.06;93470.94;5108611;28;20039;-88
2021/08/10 04:38:09;;;;;;;10.32;6.78;;;;;;;19.26;71.26;93430.81;5107015;28;20050;-89
2021/08/10 04:40:36;;;;;;;16.80;7.68;;;;;;;19.75;71.59;93502.50;5109534;28;20436;-86
2021/08/10 04:43:04;;;;;;;17.40;6.68;;;;;;;19.53;71.00;93453.25;5109589;28;20039;-86
2021/08/10 04:45:31;;;;;;;12.27;6.63;;;;;;;19.95;70.29;93502.78;5109925;28;20046;-86
2021/08/10 04:47:58;;;;;;;16.45;6.65;;;;;;;20.06;71.14;93506.19;5110324;28;20048;-86
2021/08/10 04:50:25;;;;;;;9.35;6.10;;;;;;;20.10;69.80;93513.25;5109570;28;20052;-86
2021/08/10 04:52:51;;;;;;;9.27;6.28;;;;;;;20.18;69.96;93506.69;5110248;28;20412;-86
2021/08/10 04:55:20;;;;;;;11.82;7.07;;;;;;;20.27;69.81;93512.97;5110103;28;20463;-86
2021/08/10 04:57:46;;;;;;;10.48;6.75;;;;;;;20.35;69.20;93508.25;5110983;28;20050;-86
2021/08/10 05:00:14;;;;;;;9.48;6.38;;;;;;;20.43;69.62;93502.50;5113102;28;20047;-86
2021/08/10 05:02:41;;;;;;;16.23;7.30;;;;;;;20.41;69.04;93492.31;5109872;28;20052;-85
2021/08/10 05:05:08;;;;;;;23.45;7.28;;;;;;;20.60;68.35;93512.63;5109481;28;20488;-86
2021/08/10 05:07:35;;;;;;;12.60;6.63;;;;;;;20.58;67.76;93485.25;5109132;28;20488;-86
2021/08/10 05:10:04;;;;;;;10.73;6.55;;;;;;;20.81;68.40;93509.97;5109602;28;20055;-82
2021/08/10 05:12:32;;;;;;;21.33;8.93;;;;;;;21.00;68.70;93531.09;5109339;28;20051;-82
2021/08/10 05:14:59;;;;;;;12.63;7.05;;;;;;;21.08;67.93;93525.31;5109494;28;20060;-81
2021/08/10 05:17:25;;;;;;;14.75;6.80;;;;;;;21.05;67.80;93504.97;5109732;28;20437;-86
2021/08/10 05:19:52;;;;;;;16.27;7.75;;;;;;;21.29;66.33;93517.38;5109528;28;20052;-87
2021/08/10 05:22:20;;;;;;;17.90;8.38;;;;;;;21.42;66.11;93516.00;5109303;28;20059;-88
2021/08/10 05:24:47;;;;;;;22.10;8.23;;;;;;;21.48;64.81;93496.63;5109204;28;20044;-88
2021/08/10 05:27:14;;;;;;;11.63;7.15;;;;;;;21.56;64.71;93489.28;5109366;28;20054;-88
2021/08/10 05:29:42;;;;;;;24.25;8.82;;;;;;;21.84;64.75;93505.34;5109463;28;20446;-87
2021/08/10 05:32:09;;;;;;;15.40;7.07;;;;;;;21.49;63.15;93439.94;5108806;28;20043;-88
2021/08/10 05:34:38;;;;;;;20.45;8.95;;;;;;;22.09;63.36;93504.34;5109180;28;20396;-87
2021/08/10 05:37:05;;;;;;;19.83;9.30;;;;;;;21.97;62.14;93467.28;5109654;28;20047;-87
2021/08/10 05:39:37;;;;;;;20.48;9.63;;;;;;;22.29;63.11;93500.78;5109348;28;20055;-86
2021/08/10 05:42:05;;;;;;;17.63;8.70;;;;;;;22.37;61.38;93483.69;5108870;28;20048;-86
2021/08/10 05:44:31;;;;;;;20.17;9.25;;;;;;;22.65;60.62;93499.69;5109115;28;20047;-86
2021/08/10 05:47:00;;;;;;;20.92;11.68;;;;;;;22.65;61.03;93480.56;5109371;28;20478;-84
2021/08/10 05:49:26;;;;;;;24.17;10.80;;;;;;;22.93;61.71;93506.97;5109387;28;20044;-85
2021/08/10 05:51:53;;;;;;;24.23;10.82;;;;;;;23.07;60.60;93505.22;5109423;28;20070;-84
2021/08/10 05:54:20;;;;;;;22.95;11.02;;;;;;;23.07;60.93;93481.66;5109129;28;20048;-87
2021/08/10 05:56:48;;;;;;;25.63;11.75;;;;;;;23.21;60.80;93468.63;5109253;28;20054;-87
2021/08/10 05:59:15;;;;;;;25.92;11.70;;;;;;;23.63;58.38;93499.53;5108758;28;20093;-86
2021/08/10 06:01:42;;;;;;;30.58;13.75;;;;;;;23.65;58.85;93476.41;5108647;28;20048;-88
2021/08/10 06:04:10;;;;;;;30.33;15.50;;;;;;;23.82;59.31;93475.91;5108863;28;20066;-85
2021/08/10 06:06:37;;;;;;;29.33;13.40;;;;;;;23.78;57.79;93450.56;5108658;28;20435;-88
2021/08/10 06:09:05;;;;;;;26.67;14.60;;;;;;;24.39;57.10;93500.50;5108897;28;20063;-87
2021/08/10 06:11:32;;;;;;;34.65;17.13;;;;;;;23.97;56.39;93429.53;5108790;28;20052;-86
2021/08/10 06:14:02;;;;;;;41.03;17.30;;;;;;;24.47;55.22;93497.19;5108562;28;20043;-87
2021/08/10 06:16:29;;;;;;;28.65;14.85;;;;;;;24.13;52.94;93449.22;5108961;28;20050;-87
2021/08/10 06:18:55;;;;;;;26.95;14.65;;;;;;;24.79;53.81;93500.81;5110590;28;20051;-87
2021/08/10 06:21:30;;;;;;;27.58;13.18;;;;;;;24.91;53.79;93486.44;5112434;28;20324;-87
2021/08/10 06:23:57;;;;;;;19.63;10.55;;;;;;;25.10;51.57;93473.19;5113158;28;20108;-87
2021/08/10 06:26:24;;;;;;;18.13;8.50;;;;;;;25.48;50.75;93508.91;5113266;28;20047;-87
2021/08/10 06:28:51;;;;;;;17.45;8.40;;;;;;;25.83;49.26;93503.97;5112613;28;20059;-88
2021/08/10 06:31:18;;;;;;;16.50;8.25;;;;;;;25.80;49.08;93501.94;5112702;28;20051;-86
2021/08/10 06:33:44;;;;;;;19.55;9.23;;;;;;;25.94;49.15;93506.34;5112420;28;20039;-86
2021/08/10 06:36:11;;;;;;;14.18;8.07;;;;;;;26.34;48.22;93509.09;5112139;28;20417;-86
2021/08/10 06:38:40;;;;;;;13.02;7.28;;;;;;;26.67;47.72;93495.63;5112223;28;20534;-86
2021/08/10 06:41:06;;;;;;;22.13;9.15;;;;;;;26.97;46.82;93492.50;5111959;28;20071;-87
2021/08/10 06:43:37;;;;;;;13.65;7.72;;;;;;;27.48;46.05;93484.19;5111782;28;20043;-87
2021/08/10 06:46:03;;;;;;;26.73;11.75;;;;;;;27.88;44.54;93459.53;5111954;28;20048;-88
2021/08/10 06:48:30;;;;;;;22.98;10.88;;;;;;;28.52;43.27;93494.97;5112231;28;20043;-87
2021/08/10 06:50:57;;;;;;;24.15;11.73;;;;;;;28.76;43.06;93491.00;5111459;28;20617;-87
2021/08/10 06:53:24;;;;;;;30.77;15.15;;;;;;;29.07;42.51;93482.00;5112224;28;20051;-86
2021/08/10 06:55:52;;;;;;;38.10;15.95;;;;;;;29.32;40.81;93500.69;5111842;28;20565;-87
2021/08/10 06:58:19;;;;;;;42.30;19.95;;;;;;;28.67;41.82;93461.97;5111546;28;20047;-87
2021/08/10 07:00:53;;;;;;;44.85;19.02;;;;;;;28.36;42.18;93425.25;5111682;28;20051;-87
2021/08/10 07:03:20;;;;;;;35.95;17.23;;;;;;;28.53;43.10;93495.75;5113387;28;20054;-87
2021/08/10 07:05:46;;;;;;;34.38;15.98;;;;;;;28.53;42.86;93498.38;5109255;27;20043;-88
2021/08/10 07:08:14;;;;;;;31.33;14.77;;;;;;;28.19;43.87;93492.84;5109598;28;20047;-86
2021/08/10 07:10:41;;;;;;;32.90;14.70;;;;;;;27.88;44.63;93485.91;5111520;28;20100;-87
2021/08/10 07:13:10;;;;;;;33.78;15.25;;;;;;;28.34;43.74;93483.69;5111455;28;20050;-87
2021/08/10 07:15:37;;;;;;;31.95;15.25;;;;;;;28.39;42.68;93490.66;5111429;28;20054;-87
2021/08/10 07:18:04;;;;;;;42.13;17.05;;;;;;;28.39;42.43;93459.75;5111747;28;20055;-87
2021/08/10 07:20:31;;;;;;;32.80;15.30;;;;;;;29.03;41.55;93480.31;5111272;28;20500;-88
2021/08/10 07:22:58;;;;;;;36.92;14.55;;;;;;;29.29;40.58;93452.94;5111898;28;20048;-87
2021/08/10 07:25:25;;;;;;;36.45;15.63;;;;;;;29.49;40.46;93467.28;5112404;28;20055;-87
2021/08/10 07:27:52;;;;;;;36.55;15.68;;;;;;;29.80;40.26;93489.91;5111872;28;20458;-88
2021/08/10 07:30:20;;;;;;;43.70;15.73;;;;;;;29.79;39.62;93437.28;5111815;28;20051;-89
2021/08/10 07:32:47;;;;;;;37.33;16.25;;;;;;;30.02;39.11;93428.97;5111612;28;20054;-88
2021/08/10 07:35:14;;;;;;;41.13;15.18;;;;;;;30.73;37.20;93453.59;5111836;28;20064;-89
2021/08/10 07:37:41;;;;;;;31.00;13.70;;;;;;;31.06;37.40;93447.38;5111995;28;20104;-92
2021/08/10 07:40:10;;;;;;;27.45;11.05;;;;;;;31.40;36.26;93410.09;5111469;28;20142;-91
2021/08/10 07:42:37;;;;;;;23.40;10.82;;;;;;;32.26;33.84;93471.88;5110964;28;20832;-91
2021/08/10 07:45:04;;;;;;;21.05;9.75;;;;;;;32.28;32.82;93428.25;5111281;28;20043;-91
2021/08/10 07:47:33;;;;;;;24.10;9.55;;;;;;;32.61;32.24;93465.16;5111393;28;20135;-90
2021/08/10 07:50:48;;;;;;;18.80;8.10;;;;;;;32.17;31.98;93409.41;5111691;28;20095;-90
2021/08/10 07:53:15;;;;;;;20.58;8.27;;;;;;;32.26;32.93;93417.97;5083454;28;20055;-91
2021/08/10 07:55:42;;;;;;;15.93;7.53;;;;;;;32.87;32.50;93465.75;5123641;28;20499;-90
2021/08/10 07:58:09;;;;;;;15.13;7.50;;;;;;;33.03;32.37;93447.09;5116659;28;20040;-91
2021/08/10 08:00:36;;;;;;;17.13;7.50;;;;;;;33.43;31.40;93456.72;5110581;28;20058;-89
2021/08/10 08:03:04;;;;;;;20.30;7.90;;;;;;;33.07;32.29;93466.59;5110635;28;20039;-89
2021/08/10 08:05:34;;;;;;;13.43;6.78;;;;;;;32.55;31.86;93471.88;5110921;28;20058;-85
2021/08/10 08:08:01;;;;;;;13.55;7.32;;;;;;;32.94;32.07;93471.22;5110610;28;20059;-88
2021/08/10 08:10:27;;;;;;;19.45;8.23;;;;;;;33.10;30.78;93468.56;5109984;27;20051;-89
2021/08/10 08:12:57;;;;;;;16.90;7.70;;;;;;;32.92;31.51;93466.22;5110286;28;20063;-89
2021/08/10 08:15:24;;;;;;;21.58;8.43;;;;;;;32.61;31.68;93438.56;5110576;28;20044;-90
2021/08/10 08:17:51;;;;;;;14.45;8.05;;;;;;;33.05;31.66;93472.25;5110477;28;20131;-89
2021/08/10 08:20:19;;;;;;;12.73;6.38;;;;;;;33.34;30.71;93434.84;5110555;28;20048;-88
2021/08/10 08:22:49;;;;;;;12.73;5.85;;;;;;;33.50;30.72;93410.78;5110173;28;20043;-90
2021/08/10 08:25:17;;;;;;;9.10;4.65;;;;;;;34.08;30.00;93461.75;5111260;28;20051;-89
2021/08/10 08:27:44;;;;;;;15.68;5.82;;;;;;;34.45;29.05;93453.25;5109627;28;20488;-91
2021/08/10 08:30:15;;;;;;;9.73;4.45;;;;;;;32.48;30.60;93463.72;5110391;28;20470;-88
2021/08/10 08:32:43;;;;;;;12.77;5.30;;;;;;;31.45;33.26;93473.56;5110591;28;20500;-89
2021/08/10 08:35:32;;;;;;;8.70;4.55;;;;;;;30.44;32.94;93381.13;5110488;28;20048;-89
2021/08/10 08:38:47;;;;;;;10.25;5.45;;;;;;;31.57;32.90;93458.69;5105473;27;20055;-89
2021/08/10 08:41:15;;;;;;;14.20;5.20;;;;;;;31.69;33.11;93415.38;5046581;28;20048;-87
2021/08/10 08:43:41;;;;;;;14.73;5.03;;;;;;;32.65;31.61;93455.41;5095394;28;20147;-88
2021/08/10 08:46:08;;;;;;;8.68;4.55;;;;;;;33.25;30.65;93443.03;5109187;28;20051;-89
2021/08/10 08:48:36;;;;;;;15.38;5.13;;;;;;;33.91;30.49;93453.06;5109389;28;20043;-90
2021/08/10 08:51:11;;;;;;;8.40;4.80;;;;;;;33.50;28.60;93410.78;5109791;28;20063;-89
2021/08/10 08:53:45;;;;;;;8.55;4.75;;;;;;;33.66;29.26;93452.59;5110582;28;20101;-88
2021/08/10 08:56:12;;;;;;;10.43;4.80;;;;;;;33.94;29.04;93446.25;5110253;28;20051;-89
2021/08/10 08:58:39;;;;;;;10.60;4.95;;;;;;;34.28;28.65;93449.16;5110341;28;20048;-87
2021/08/10 09:01:07;;;;;;;12.15;5.22;;;;;;;33.77;29.24;93423.50;5110142;28;20458;-89
2021/08/10 09:03:34;;;;;;;6.18;4.25;;;;;;;34.16;26.02;93423.44;5110228;28;20047;-90
2021/08/10 09:06:01;;;;;;;12.88;5.28;;;;;;;34.55;27.78;93384.41;5110393;28;20079;-90
2021/08/10 09:08:34;;;;;;;17.20;5.47;;;;;;;34.70;27.22;93338.19;5109957;28;20047;-92
2021/08/10 09:11:03;;;;;;;16.40;4.78;;;;;;;35.48;26.97;93391.41;5109761;28;20060;-91
2021/08/10 09:13:32;;;;;;;9.90;5.10;;;;;;;35.90;25.25;93402.91;5109887;28;20051;-88
2021/08/10 09:16:01;;;;;;;8.88;4.53;;;;;;;34.98;25.87;93429.66;5110289;28;20055;-87
2021/08/10 09:18:28;;;;;;;9.05;4.40;;;;;;;34.45;26.29;93375.91;5110301;28;20131;-90
2021/08/10 09:21:07;;;;;;;7.95;4.85;;;;;;;34.35;26.63;93369.31;5109749;28;20050;-89
2021/08/10 09:23:43;;;;;;;10.15;4.82;;;;;;;34.81;27.00;93404.25;5109797;28;20043;-90
2021/08/10 09:26:12;;;;;;;8.77;5.13;;;;;;;35.51;26.85;93418.13;5109844;28;20048;-89
2021/08/10 09:28:38;;;;;;;29.60;5.60;;;;;;;35.93;26.71;93404.84;5109883;28;20059;-91
2021/08/10 09:31:38;;;;;;;12.93;4.85;;;;;;;36.34;25.31;93420.91;5110320;28;20051;-90
2021/08/10 09:34:07;;;;;;;10.25;4.65;;;;;;;36.16;24.59;93403.94;5107019;28;20054;-90
2021/08/10 09:36:35;;;;;;;9.52;5.15;;;;;;;36.61;25.63;93374.47;5108081;28;20062;-90
2021/08/10 09:39:05;;;;;;;9.23;4.80;;;;;;;36.85;25.08;93372.34;5109207;28;20055;-91
2021/08/10 09:41:32;;;;;;;9.15;5.18;;;;;;;36.85;23.21;93365.09;5110116;28;20047;-89
2021/08/10 09:44:14;;;;;;;7.93;5.25;;;;;;;37.04;23.36;93353.31;5109641;28;20055;-92
2021/08/10 09:46:51;;;;;;;8.15;4.47;;;;;;;37.61;22.87;93396.78;5109540;28;20082;-93
2021/08/10 09:49:21;;;;;;;10.23;4.68;;;;;;;37.65;22.91;93367.31;5110233;28;20051;-91
2021/08/10 09:51:49;;;;;;;10.30;5.05;;;;;;;38.13;22.81;93393.06;5110220;28;20055;-92
2021/08/10 09:54:19;;;;;;;8.82;4.55;;;;;;;37.74;22.84;93319.47;5113984;28;20047;-92
2021/08/10 09:56:51;;;;;;;7.78;4.68;;;;;;;37.30;21.97;93332.00;5113226;28;20054;-88
2021/08/10 09:59:22;;;;;;;9.68;4.97;;;;;;;37.12;22.77;93307.84;5112680;28;20051;-91
2021/08/10 10:01:51;;;;;;;11.57;4.78;;;;;;;38.12;22.98;93396.16;5112569;28;20062;-91
2021/08/10 10:04:21;;;;;;;11.88;4.82;;;;;;;38.51;22.49;93395.38;5113071;28;20047;-92
2021/08/10 10:06:49;;;;;;;11.20;6.32;;;;;;;37.80;21.93;93379.59;5112965;28;20044;-90
2021/08/10 10:09:18;;;;;;;7.10;4.75;;;;;;;37.20;22.43;93384.38;5112859;28;20055;-89
2021/08/10 10:11:48;;;;;;;10.18;4.82;;;;;;;36.16;23.26;93335.19;5112846;28;20054;-91
2021/08/10 10:14:15;;;;;;;10.02;4.30;;;;;;;36.76;24.68;93375.34;5113048;27;20044;-89
2021/08/10 10:16:45;;;;;;;10.70;4.82;;;;;;;37.13;23.66;93361.03;5112740;28;20052;-89
2021/08/10 10:19:14;;;;;;;8.43;4.90;;;;;;;37.18;24.29;93365.25;5113508;28;20572;-90
2021/08/10 10:21:45;;;;;;;12.68;4.80;;;;;;;37.48;23.82;93361.50;5113921;28;20051;-89
2021/08/10 10:24:23;;;;;;;12.43;4.88;;;;;;;37.64;23.84;93315.66;5113400;28;20048;-93
2021/08/10 10:26:54;;;;;;;9.57;4.47;;;;;;;35.28;25.64;93328.22;5113378;27;20415;-89
2021/08/10 10:29:23;;;;;;;12.13;4.85;;;;;;;35.56;26.14;93366.28;5113229;28;20047;-90
2021/08/10 10:31:53;;;;;;;10.77;4.68;;;;;;;34.73;25.77;93374.03;5113266;28;20496;-89
2021/08/10 10:34:23;;;;;;;17.77;6.00;;;;;;;35.59;25.29;93362.91;5113559;28;20448;-91
2021/08/10 10:36:53;;;;;;;12.68;5.25;;;;;;;35.92;25.58;93309.75;5113498;28;20070;-92
2021/08/10 10:39:26;;;;;;;10.20;4.65;;;;;;;36.30;24.45;93358.59;5130918;28;20065;-90
2021/08/10 10:41:55;;;;;;;7.45;5.82;;;;;;;36.68;24.27;93306.84;5124466;28;20525;-91
2021/08/10 10:47:35;;;;;;;9.00;4.50;;;;;;;35.25;26.17;93352.19;5109082;28;20523;-92
2021/08/10 10:50:13;;;;;;;6.85;4.30;;;;;;;34.60;26.57;93326.22;5112879;28;20126;-90
2021/08/10 10:52:41;;;;;;;8.55;4.53;;;;;;;34.43;26.78;93337.41;5112313;28;20056;-89
2021/08/10 10:55:11;;;;;;;6.80;4.55;;;;;;;34.84;26.32;93340.25;5108338;27;20075;-89
2021/08/10 10:57:37;;;;;;;8.18;4.57;;;;;;;34.74;26.47;93349.66;5110526;28;20055;-88
2021/08/10 11:00:35;;;;;;;11.10;4.57;;;;;;;35.49;25.50;93352.88;5111251;28;20044;-88
2021/08/10 11:03:19;;;;;;;10.38;4.72;;;;;;;35.88;24.89;93346.38;5111425;28;20047;-88
2021/08/10 11:05:46;;;;;;;10.77;5.00;;;;;;;36.04;24.43;93343.47;5110205;27;20040;-86
2021/08/10 11:08:37;;;;;;;7.35;4.03;;;;;;;34.57;24.31;93270.16;5111944;28;20425;-90
2021/08/10 11:11:06;;;;;;;10.75;4.70;;;;;;;35.22;24.45;93351.06;5111267;28;20079;-90
2021/08/10 11:13:37;;;;;;;6.55;4.35;;;;;;;35.16;25.16;93355.94;5111762;28;20055;-87
2021/08/10 11:16:11;;;;;;;20.13;4.97;;;;;;;34.73;25.60;93286.00;5111467;28;20573;-87
2021/08/10 11:18:38;;;;;;;6.95;3.92;;;;;;;35.19;25.58;93335.75;5111991;28;20051;-88
2021/08/10 11:21:23;;;;;;;7.07;3.95;;;;;;;35.39;25.29;93332.91;5111516;28;20074;-89
2021/08/10 11:23:50;;;;;;;7.28;3.95;;;;;;;35.22;24.97;93347.59;5111546;28;20048;-88
2021/08/10 11:26:38;;;;;;;17.13;4.25;;;;;;;36.02;24.95;93335.03;5111282;28;20511;-89
2021/08/10 11:29:06;;;;;;;9.65;4.03;;;;;;;35.90;24.06;93333.44;5111590;28;20134;-88
2021/08/10 11:31:36;;;;;;;6.05;3.33;;;;;;;36.57;24.12;93331.66;5111007;28;20062;-86
2021/08/10 11:34:04;;;;;;;5.43;3.25;;;;;;;37.02;23.60;93336.84;5111273;28;20047;-88
2021/08/10 11:36:35;;;;;;;7.35;3.63;;;;;;;36.51;23.06;93277.72;5111173;28;20571;-89
2021/08/10 11:39:06;;;;;;;9.43;5.25;;;;;;;34.83;24.71;93280.03;5111220;28;20044;-91